sensor_id;sensor_type;location;lat;lon;timestamp;P1;durP1;ratioP1;P2;durP2;ratioP2
12892;SDS011;6514;48.606;9.222;2023-04-29T00:01:29;3.30;;;3.10;;
12892;SDS011;6514;48.606;9.222;2023-04-29T00:03:56;3.60;;;2.87;;
12892;SDS011;6514;48.606;9.222;2023-04-29T00:06:23;3.23;;;2.93;;
12892;SDS011;6514;48.606;9.222;2023-04-29T00:08:50;3.63;;;3.33;;
12892;SDS011;6514;48.606;9.222;2023-04-29T00:11:17;4.20;;;3.57;;
12892;SDS011;6514;48.606;9.222;2023-04-29T00:13:44;5.83;;;3.17;;
12892;SDS011;6514;48.606;9.222;2023-04-29T00:16:10;3.10;;;2.90;;
12892;SDS011;6514;48.606;9.222;2023-04-29T00:18:39;3.37;;;3.07;;
12892;SDS011;6514;48.606;9.222;2023-04-29T00:21:06;3.87;;;2.87;;
12892;SDS011;6514;48.606;9.222;2023-04-29T00:23:33;3.37;;;3.03;;
12892;SDS011;6514;48.606;9.222;2023-04-29T00:26:00;3.30;;;3.00;;
12892;SDS011;6514;48.606;9.222;2023-04-29T00:28:27;3.77;;;3.47;;
12892;SDS011;6514;48.606;9.222;2023-04-29T00:30:54;4.77;;;3.60;;
12892;SDS011;6514;48.606;9.222;2023-04-29T00:33:21;3.50;;;3.20;;
12892;SDS011;6514;48.606;9.222;2023-04-29T00:35:49;4.27;;;3.40;;
12892;SDS011;6514;48.606;9.222;2023-04-29T00:38:16;4.10;;;3.80;;
12892;SDS011;6514;48.606;9.222;2023-04-29T00:40:43;3.93;;;3.53;;
12892;SDS011;6514;48.606;9.222;2023-04-29T00:43:10;3.40;;;3.10;;
12892;SDS011;6514;48.606;9.222;2023-04-29T00:45:37;3.93;;;3.30;;
12892;SDS011;6514;48.606;9.222;2023-04-29T00:48:04;4.27;;;3.70;;
12892;SDS011;6514;48.606;9.222;2023-04-29T00:50:31;3.80;;;3.50;;
12892;SDS011;6514;48.606;9.222;2023-04-29T00:52:59;3.37;;;3.07;;
12892;SDS011;6514;48.606;9.222;2023-04-29T00:55:27;4.13;;;3.83;;
12892;SDS011;6514;48.606;9.222;2023-04-29T00:57:55;4.20;;;3.80;;
12892;SDS011;6514;48.606;9.222;2023-04-29T01:00:22;5.27;;;3.97;;
12892;SDS011;6514;48.606;9.222;2023-04-29T01:02:50;4.23;;;3.93;;
12892;SDS011;6514;48.606;9.222;2023-04-29T01:05:18;6.73;;;3.60;;
12892;SDS011;6514;48.606;9.222;2023-04-29T01:07:47;4.43;;;4.03;;
12892;SDS011;6514;48.606;9.222;2023-04-29T01:10:27;4.33;;;3.80;;
12892;SDS011;6514;48.606;9.222;2023-04-29T01:12:59;3.57;;;3.33;;
12892;SDS011;6514;48.606;9.222;2023-04-29T01:15:33;3.57;;;3.27;;
12892;SDS011;6514;48.606;9.222;2023-04-29T01:18:13;3.83;;;3.53;;
12892;SDS011;6514;48.606;9.222;2023-04-29T01:20:45;4.20;;;3.90;;
12892;SDS011;6514;48.606;9.222;2023-04-29T01:23:12;4.93;;;3.97;;
12892;SDS011;6514;48.606;9.222;2023-04-29T01:25:40;4.67;;;3.40;;
12892;SDS011;6514;48.606;9.222;2023-04-29T01:28:10;3.77;;;3.47;;
12892;SDS011;6514;48.606;9.222;2023-04-29T01:30:44;5.17;;;3.60;;
12892;SDS011;6514;48.606;9.222;2023-04-29T01:33:16;3.70;;;3.40;;
12892;SDS011;6514;48.606;9.222;2023-04-29T01:35:50;3.80;;;3.50;;
12892;SDS011;6514;48.606;9.222;2023-04-29T01:38:33;3.70;;;3.40;;
12892;SDS011;6514;48.606;9.222;2023-04-29T01:41:11;3.90;;;3.60;;
12892;SDS011;6514;48.606;9.222;2023-04-29T01:43:41;4.43;;;4.10;;
12892;SDS011;6514;48.606;9.222;2023-04-29T01:46:11;6.37;;;5.00;;
12892;SDS011;6514;48.606;9.222;2023-04-29T01:48:42;4.73;;;4.33;;
12892;SDS011;6514;48.606;9.222;2023-04-29T01:51:09;5.77;;;5.27;;
12892;SDS011;6514;48.606;9.222;2023-04-29T01:53:36;5.10;;;4.73;;
12892;SDS011;6514;48.606;9.222;2023-04-29T01:56:05;5.70;;;5.17;;
12892;SDS011;6514;48.606;9.222;2023-04-29T01:58:33;6.03;;;5.43;;
12892;SDS011;6514;48.606;9.222;2023-04-29T02:01:00;5.17;;;4.77;;
12892;SDS011;6514;48.606;9.222;2023-04-29T02:03:27;5.27;;;4.87;;
12892;SDS011;6514;48.606;9.222;2023-04-29T02:05:54;4.33;;;4.03;;
12892;SDS011;6514;48.606;9.222;2023-04-29T02:08:21;4.67;;;4.27;;
12892;SDS011;6514;48.606;9.222;2023-04-29T02:10:51;4.60;;;4.20;;
12892;SDS011;6514;48.606;9.222;2023-04-29T02:13:19;4.00;;;3.60;;
12892;SDS011;6514;48.606;9.222;2023-04-29T02:15:47;4.53;;;4.13;;
12892;SDS011;6514;48.606;9.222;2023-04-29T02:18:14;4.83;;;4.33;;
12892;SDS011;6514;48.606;9.222;2023-04-29T02:20:41;5.27;;;4.77;;
12892;SDS011;6514;48.606;9.222;2023-04-29T02:23:08;5.67;;;5.03;;
12892;SDS011;6514;48.606;9.222;2023-04-29T02:25:35;7.43;;;6.23;;
12892;SDS011;6514;48.606;9.222;2023-04-29T02:28:02;8.43;;;5.47;;
12892;SDS011;6514;48.606;9.222;2023-04-29T02:30:29;7.30;;;6.60;;
12892;SDS011;6514;48.606;9.222;2023-04-29T02:32:57;8.83;;;7.03;;
12892;SDS011;6514;48.606;9.222;2023-04-29T02:35:24;6.93;;;6.33;;
12892;SDS011;6514;48.606;9.222;2023-04-29T02:37:51;6.20;;;5.57;;
12892;SDS011;6514;48.606;9.222;2023-04-29T02:40:18;6.30;;;5.70;;
12892;SDS011;6514;48.606;9.222;2023-04-29T02:42:45;10.20;;;8.13;;
12892;SDS011;6514;48.606;9.222;2023-04-29T02:45:11;8.60;;;7.90;;
12892;SDS011;6514;48.606;9.222;2023-04-29T02:47:38;9.17;;;7.80;;
12892;SDS011;6514;48.606;9.222;2023-04-29T02:50:07;8.57;;;7.77;;
12892;SDS011;6514;48.606;9.222;2023-04-29T02:52:34;9.20;;;7.43;;
12892;SDS011;6514;48.606;9.222;2023-04-29T02:55:01;9.90;;;7.70;;
12892;SDS011;6514;48.606;9.222;2023-04-29T02:57:27;8.57;;;7.77;;
12892;SDS011;6514;48.606;9.222;2023-04-29T02:59:56;7.87;;;7.07;;
12892;SDS011;6514;48.606;9.222;2023-04-29T03:02:23;8.57;;;7.77;;
12892;SDS011;6514;48.606;9.222;2023-04-29T03:04:50;8.03;;;7.23;;
12892;SDS011;6514;48.606;9.222;2023-04-29T03:07:18;11.30;;;7.83;;
12892;SDS011;6514;48.606;9.222;2023-04-29T03:09:45;9.27;;;7.43;;
12892;SDS011;6514;48.606;9.222;2023-04-29T03:12:12;7.80;;;7.00;;
12892;SDS011;6514;48.606;9.222;2023-04-29T03:14:39;8.63;;;7.73;;
12892;SDS011;6514;48.606;9.222;2023-04-29T03:17:06;8.20;;;7.40;;
12892;SDS011;6514;48.606;9.222;2023-04-29T03:19:32;8.20;;;7.17;;
12892;SDS011;6514;48.606;9.222;2023-04-29T03:21:59;9.10;;;8.10;;
12892;SDS011;6514;48.606;9.222;2023-04-29T03:24:27;9.47;;;7.53;;
12892;SDS011;6514;48.606;9.222;2023-04-29T03:26:54;8.57;;;7.73;;
12892;SDS011;6514;48.606;9.222;2023-04-29T03:29:21;8.93;;;8.13;;
12892;SDS011;6514;48.606;9.222;2023-04-29T03:31:48;8.77;;;7.87;;
12892;SDS011;6514;48.606;9.222;2023-04-29T03:34:15;8.73;;;7.83;;
12892;SDS011;6514;48.606;9.222;2023-04-29T03:36:42;12.03;;;9.10;;
12892;SDS011;6514;48.606;9.222;2023-04-29T03:39:09;13.40;;;8.37;;
12892;SDS011;6514;48.606;9.222;2023-04-29T03:41:37;9.57;;;8.60;;
12892;SDS011;6514;48.606;9.222;2023-04-29T03:44:04;9.63;;;8.73;;
12892;SDS011;6514;48.606;9.222;2023-04-29T03:46:31;9.07;;;8.17;;
12892;SDS011;6514;48.606;9.222;2023-04-29T03:48:58;9.20;;;8.10;;
12892;SDS011;6514;48.606;9.222;2023-04-29T03:51:25;10.33;;;9.23;;
12892;SDS011;6514;48.606;9.222;2023-04-29T03:53:53;11.20;;;8.83;;
12892;SDS011;6514;48.606;9.222;2023-04-29T03:56:20;10.13;;;9.10;;
12892;SDS011;6514;48.606;9.222;2023-04-29T03:58:50;9.17;;;8.27;;
12892;SDS011;6514;48.606;9.222;2023-04-29T04:01:17;10.27;;;8.33;;
12892;SDS011;6514;48.606;9.222;2023-04-29T04:03:44;9.47;;;7.90;;
12892;SDS011;6514;48.606;9.222;2023-04-29T04:06:11;9.47;;;7.73;;
12892;SDS011;6514;48.606;9.222;2023-04-29T04:08:39;8.67;;;7.77;;
12892;SDS011;6514;48.606;9.222;2023-04-29T04:11:06;7.80;;;7.03;;
12892;SDS011;6514;48.606;9.222;2023-04-29T04:13:33;7.43;;;6.73;;
12892;SDS011;6514;48.606;9.222;2023-04-29T04:16:02;8.70;;;7.20;;
12892;SDS011;6514;48.606;9.222;2023-04-29T04:18:29;8.60;;;6.40;;
12892;SDS011;6514;48.606;9.222;2023-04-29T04:20:55;7.57;;;6.87;;
12892;SDS011;6514;48.606;9.222;2023-04-29T04:23:22;7.40;;;6.70;;
12892;SDS011;6514;48.606;9.222;2023-04-29T04:25:49;7.03;;;6.37;;
12892;SDS011;6514;48.606;9.222;2023-04-29T04:28:17;7.97;;;7.17;;
12892;SDS011;6514;48.606;9.222;2023-04-29T04:30:45;7.77;;;6.87;;
12892;SDS011;6514;48.606;9.222;2023-04-29T04:33:13;8.63;;;7.13;;
12892;SDS011;6514;48.606;9.222;2023-04-29T04:35:41;7.67;;;6.87;;
12892;SDS011;6514;48.606;9.222;2023-04-29T04:38:07;6.77;;;6.17;;
12892;SDS011;6514;48.606;9.222;2023-04-29T04:40:35;8.60;;;7.73;;
12892;SDS011;6514;48.606;9.222;2023-04-29T04:43:02;10.33;;;7.37;;
12892;SDS011;6514;48.606;9.222;2023-04-29T04:45:29;9.67;;;7.37;;
12892;SDS011;6514;48.606;9.222;2023-04-29T04:47:55;10.60;;;8.70;;
12892;SDS011;6514;48.606;9.222;2023-04-29T04:50:26;10.73;;;8.67;;
12892;SDS011;6514;48.606;9.222;2023-04-29T04:52:53;9.87;;;8.77;;
12892;SDS011;6514;48.606;9.222;2023-04-29T04:55:19;11.20;;;9.73;;
12892;SDS011;6514;48.606;9.222;2023-04-29T04:57:46;9.20;;;8.30;;
12892;SDS011;6514;48.606;9.222;2023-04-29T05:00:14;9.57;;;8.10;;
12892;SDS011;6514;48.606;9.222;2023-04-29T05:02:41;9.97;;;8.97;;
12892;SDS011;6514;48.606;9.222;2023-04-29T05:05:08;9.97;;;8.60;;
12892;SDS011;6514;48.606;9.222;2023-04-29T05:07:36;10.47;;;8.70;;
12892;SDS011;6514;48.606;9.222;2023-04-29T05:10:04;9.07;;;7.97;;
12892;SDS011;6514;48.606;9.222;2023-04-29T05:12:32;9.93;;;8.57;;
12892;SDS011;6514;48.606;9.222;2023-04-29T05:14:59;9.10;;;8.17;;
12892;SDS011;6514;48.606;9.222;2023-04-29T05:17:26;10.20;;;9.20;;
12892;SDS011;6514;48.606;9.222;2023-04-29T05:19:53;9.70;;;8.10;;
12892;SDS011;6514;48.606;9.222;2023-04-29T05:22:20;7.70;;;6.73;;
12892;SDS011;6514;48.606;9.222;2023-04-29T05:24:48;6.73;;;5.97;;
12892;SDS011;6514;48.606;9.222;2023-04-29T05:27:16;6.50;;;5.90;;
12892;SDS011;6514;48.606;9.222;2023-04-29T05:29:44;6.33;;;5.50;;
12892;SDS011;6514;48.606;9.222;2023-04-29T05:32:11;5.63;;;5.13;;
12892;SDS011;6514;48.606;9.222;2023-04-29T05:34:38;8.93;;;5.73;;
12892;SDS011;6514;48.606;9.222;2023-04-29T05:37:05;6.50;;;5.93;;
12892;SDS011;6514;48.606;9.222;2023-04-29T05:39:32;6.03;;;5.20;;
12892;SDS011;6514;48.606;9.222;2023-04-29T05:42:00;7.20;;;6.57;;
12892;SDS011;6514;48.606;9.222;2023-04-29T05:44:27;6.83;;;6.23;;
12892;SDS011;6514;48.606;9.222;2023-04-29T05:46:54;7.00;;;6.37;;
12892;SDS011;6514;48.606;9.222;2023-04-29T05:49:21;8.13;;;7.30;;
12892;SDS011;6514;48.606;9.222;2023-04-29T05:51:47;7.63;;;6.83;;
12892;SDS011;6514;48.606;9.222;2023-04-29T05:54:14;8.33;;;6.93;;
12892;SDS011;6514;48.606;9.222;2023-04-29T05:56:41;7.67;;;7.00;;
12892;SDS011;6514;48.606;9.222;2023-04-29T05:59:09;6.20;;;5.70;;
12892;SDS011;6514;48.606;9.222;2023-04-29T06:01:36;5.90;;;5.30;;
12892;SDS011;6514;48.606;9.222;2023-04-29T06:04:03;5.23;;;4.83;;
12892;SDS011;6514;48.606;9.222;2023-04-29T06:06:30;5.47;;;4.27;;
12892;SDS011;6514;48.606;9.222;2023-04-29T06:08:58;3.73;;;3.40;;
12892;SDS011;6514;48.606;9.222;2023-04-29T06:11:26;3.40;;;3.10;;
12892;SDS011;6514;48.606;9.222;2023-04-29T06:13:53;3.83;;;3.47;;
12892;SDS011;6514;48.606;9.222;2023-04-29T06:16:21;3.70;;;2.80;;
12892;SDS011;6514;48.606;9.222;2023-04-29T06:18:48;2.57;;;2.40;;
12892;SDS011;6514;48.606;9.222;2023-04-29T06:21:16;2.90;;;2.70;;
12892;SDS011;6514;48.606;9.222;2023-04-29T06:23:43;2.83;;;2.63;;
12892;SDS011;6514;48.606;9.222;2023-04-29T06:26:10;2.00;;;1.90;;
12892;SDS011;6514;48.606;9.222;2023-04-29T06:28:37;3.30;;;2.40;;
12892;SDS011;6514;48.606;9.222;2023-04-29T06:31:04;2.50;;;2.03;;
12892;SDS011;6514;48.606;9.222;2023-04-29T06:33:33;2.60;;;2.40;;
12892;SDS011;6514;48.606;9.222;2023-04-29T06:36:00;1.90;;;1.80;;
12892;SDS011;6514;48.606;9.222;2023-04-29T06:38:28;3.67;;;2.03;;
12892;SDS011;6514;48.606;9.222;2023-04-29T06:40:55;1.87;;;1.77;;
12892;SDS011;6514;48.606;9.222;2023-04-29T06:43:24;1.87;;;1.63;;
12892;SDS011;6514;48.606;9.222;2023-04-29T06:45:51;2.27;;;1.33;;
12892;SDS011;6514;48.606;9.222;2023-04-29T06:48:18;1.50;;;1.40;;
12892;SDS011;6514;48.606;9.222;2023-04-29T06:50:49;1.83;;;1.40;;
12892;SDS011;6514;48.606;9.222;2023-04-29T06:53:16;2.00;;;1.13;;
12892;SDS011;6514;48.606;9.222;2023-04-29T06:55:44;5.53;;;1.40;;
12892;SDS011;6514;48.606;9.222;2023-04-29T06:58:11;1.40;;;1.10;;
12892;SDS011;6514;48.606;9.222;2023-04-29T07:00:38;1.23;;;1.13;;
12892;SDS011;6514;48.606;9.222;2023-04-29T07:03:05;2.10;;;0.90;;
12892;SDS011;6514;48.606;9.222;2023-04-29T07:05:33;2.43;;;1.37;;
12892;SDS011;6514;48.606;9.222;2023-04-29T07:08:02;2.90;;;1.20;;
12892;SDS011;6514;48.606;9.222;2023-04-29T07:10:29;1.20;;;1.10;;
12892;SDS011;6514;48.606;9.222;2023-04-29T07:12:55;1.10;;;1.00;;
12892;SDS011;6514;48.606;9.222;2023-04-29T07:15:24;1.17;;;1.00;;
12892;SDS011;6514;48.606;9.222;2023-04-29T07:17:51;1.53;;;0.87;;
12892;SDS011;6514;48.606;9.222;2023-04-29T07:20:18;2.00;;;0.90;;
12892;SDS011;6514;48.606;9.222;2023-04-29T07:22:45;1.10;;;1.00;;
12892;SDS011;6514;48.606;9.222;2023-04-29T07:25:13;0.83;;;0.83;;
12892;SDS011;6514;48.606;9.222;2023-04-29T07:27:40;1.50;;;1.10;;
12892;SDS011;6514;48.606;9.222;2023-04-29T07:30:07;3.40;;;0.97;;
12892;SDS011;6514;48.606;9.222;2023-04-29T07:32:34;1.60;;;0.90;;
12892;SDS011;6514;48.606;9.222;2023-04-29T07:35:01;2.70;;;1.30;;
12892;SDS011;6514;48.606;9.222;2023-04-29T07:37:28;1.63;;;1.43;;
12892;SDS011;6514;48.606;9.222;2023-04-29T07:39:55;2.90;;;1.30;;
12892;SDS011;6514;48.606;9.222;2023-04-29T07:42:23;1.07;;;1.07;;
12892;SDS011;6514;48.606;9.222;2023-04-29T07:44:50;1.50;;;1.03;;
12892;SDS011;6514;48.606;9.222;2023-04-29T07:47:16;2.40;;;1.00;;
12892;SDS011;6514;48.606;9.222;2023-04-29T07:49:43;2.93;;;1.30;;
12892;SDS011;6514;48.606;9.222;2023-04-29T07:52:10;1.20;;;1.10;;
12892;SDS011;6514;48.606;9.222;2023-04-29T07:54:37;1.40;;;1.20;;
12892;SDS011;6514;48.606;9.222;2023-04-29T07:57:04;4.20;;;1.30;;
12892;SDS011;6514;48.606;9.222;2023-04-29T07:59:32;1.63;;;0.93;;
12892;SDS011;6514;48.606;9.222;2023-04-29T08:01:59;1.07;;;0.80;;
12892;SDS011;6514;48.606;9.222;2023-04-29T08:04:26;2.50;;;0.93;;
12892;SDS011;6514;48.606;9.222;2023-04-29T08:06:53;1.60;;;1.00;;
12892;SDS011;6514;48.606;9.222;2023-04-29T08:09:20;1.87;;;0.90;;
12892;SDS011;6514;48.606;9.222;2023-04-29T08:11:47;0.80;;;0.80;;
12892;SDS011;6514;48.606;9.222;2023-04-29T08:14:14;0.80;;;0.80;;
12892;SDS011;6514;48.606;9.222;2023-04-29T08:16:43;0.73;;;0.70;;
12892;SDS011;6514;48.606;9.222;2023-04-29T08:19:10;0.93;;;0.83;;
12892;SDS011;6514;48.606;9.222;2023-04-29T08:21:37;1.00;;;0.80;;
12892;SDS011;6514;48.606;9.222;2023-04-29T08:24:04;1.07;;;0.70;;
12892;SDS011;6514;48.606;9.222;2023-04-29T08:26:31;0.77;;;0.77;;
12892;SDS011;6514;48.606;9.222;2023-04-29T08:28:58;0.90;;;0.80;;
12892;SDS011;6514;48.606;9.222;2023-04-29T08:31:25;0.77;;;0.60;;
12892;SDS011;6514;48.606;9.222;2023-04-29T08:33:53;0.73;;;0.73;;
12892;SDS011;6514;48.606;9.222;2023-04-29T08:36:22;1.33;;;0.80;;
12892;SDS011;6514;48.606;9.222;2023-04-29T08:38:49;1.07;;;0.90;;
12892;SDS011;6514;48.606;9.222;2023-04-29T08:41:17;0.90;;;0.80;;
12892;SDS011;6514;48.606;9.222;2023-04-29T08:43:54;0.60;;;0.60;;
12892;SDS011;6514;48.606;9.222;2023-04-29T08:46:22;0.90;;;0.70;;
12892;SDS011;6514;48.606;9.222;2023-04-29T08:48:50;1.00;;;0.60;;
12892;SDS011;6514;48.606;9.222;2023-04-29T08:51:21;0.60;;;0.60;;
12892;SDS011;6514;48.606;9.222;2023-04-29T08:53:48;1.00;;;0.73;;
12892;SDS011;6514;48.606;9.222;2023-04-29T08:56:16;1.27;;;0.90;;
12892;SDS011;6514;48.606;9.222;2023-04-29T08:58:45;1.67;;;0.67;;
12892;SDS011;6514;48.606;9.222;2023-04-29T09:01:15;0.87;;;0.80;;
12892;SDS011;6514;48.606;9.222;2023-04-29T09:03:45;1.00;;;0.90;;
12892;SDS011;6514;48.606;9.222;2023-04-29T09:06:16;0.60;;;0.60;;
12892;SDS011;6514;48.606;9.222;2023-04-29T09:08:45;1.27;;;0.60;;
12892;SDS011;6514;48.606;9.222;2023-04-29T09:11:12;1.17;;;0.80;;
12892;SDS011;6514;48.606;9.222;2023-04-29T09:13:40;0.70;;;0.70;;
12892;SDS011;6514;48.606;9.222;2023-04-29T09:16:09;1.37;;;0.60;;
12892;SDS011;6514;48.606;9.222;2023-04-29T09:18:43;0.83;;;0.63;;
12892;SDS011;6514;48.606;9.222;2023-04-29T09:21:12;0.80;;;0.80;;
12892;SDS011;6514;48.606;9.222;2023-04-29T09:23:42;1.00;;;0.70;;
12892;SDS011;6514;48.606;9.222;2023-04-29T09:26:11;1.67;;;0.80;;
12892;SDS011;6514;48.606;9.222;2023-04-29T09:28:38;0.97;;;0.97;;
12892;SDS011;6514;48.606;9.222;2023-04-29T09:31:07;0.70;;;0.70;;
12892;SDS011;6514;48.606;9.222;2023-04-29T09:33:50;0.87;;;0.87;;
12892;SDS011;6514;48.606;9.222;2023-04-29T09:36:40;0.80;;;0.80;;
12892;SDS011;6514;48.606;9.222;2023-04-29T09:39:10;1.20;;;1.10;;
12892;SDS011;6514;48.606;9.222;2023-04-29T09:41:40;1.33;;;0.80;;
12892;SDS011;6514;48.606;9.222;2023-04-29T09:44:09;0.90;;;0.90;;
12892;SDS011;6514;48.606;9.222;2023-04-29T09:46:36;0.80;;;0.80;;
12892;SDS011;6514;48.606;9.222;2023-04-29T09:49:03;2.00;;;0.80;;
12892;SDS011;6514;48.606;9.222;2023-04-29T09:51:50;0.80;;;0.80;;
12892;SDS011;6514;48.606;9.222;2023-04-29T09:54:19;1.10;;;1.00;;
12892;SDS011;6514;48.606;9.222;2023-04-29T09:56:48;1.47;;;0.77;;
12892;SDS011;6514;48.606;9.222;2023-04-29T09:59:17;2.87;;;0.80;;
12892;SDS011;6514;48.606;9.222;2023-04-29T10:01:45;1.60;;;0.70;;
12892;SDS011;6514;48.606;9.222;2023-04-29T10:04:15;0.70;;;0.70;;
12892;SDS011;6514;48.606;9.222;2023-04-29T10:06:43;1.10;;;0.90;;
12892;SDS011;6514;48.606;9.222;2023-04-29T10:09:12;1.00;;;0.80;;
12892;SDS011;6514;48.606;9.222;2023-04-29T10:11:41;0.70;;;0.70;;
12892;SDS011;6514;48.606;9.222;2023-04-29T10:14:11;1.20;;;1.10;;
12892;SDS011;6514;48.606;9.222;2023-04-29T10:16:44;2.00;;;1.47;;
12892;SDS011;6514;48.606;9.222;2023-04-29T10:19:14;2.70;;;1.23;;
12892;SDS011;6514;48.606;9.222;2023-04-29T10:21:47;1.73;;;1.30;;
12892;SDS011;6514;48.606;9.222;2023-04-29T10:24:15;1.87;;;1.30;;
12892;SDS011;6514;48.606;9.222;2023-04-29T10:26:44;1.97;;;1.10;;
12892;SDS011;6514;48.606;9.222;2023-04-29T10:29:15;3.60;;;1.40;;
12892;SDS011;6514;48.606;9.222;2023-04-29T10:31:43;2.60;;;1.33;;
12892;SDS011;6514;48.606;9.222;2023-04-29T10:34:13;2.73;;;1.20;;
12892;SDS011;6514;48.606;9.222;2023-04-29T10:36:43;1.13;;;1.03;;
12892;SDS011;6514;48.606;9.222;2023-04-29T10:39:12;1.20;;;1.03;;
12892;SDS011;6514;48.606;9.222;2023-04-29T10:41:47;3.40;;;1.20;;
12892;SDS011;6514;48.606;9.222;2023-04-29T10:44:17;1.53;;;1.10;;
12892;SDS011;6514;48.606;9.222;2023-04-29T10:46:44;1.70;;;1.50;;
12892;SDS011;6514;48.606;9.222;2023-04-29T10:49:11;1.73;;;1.20;;
12892;SDS011;6514;48.606;9.222;2023-04-29T10:51:38;1.93;;;1.40;;
12892;SDS011;6514;48.606;9.222;2023-04-29T10:54:07;2.40;;;1.07;;
12892;SDS011;6514;48.606;9.222;2023-04-29T10:56:38;1.10;;;1.10;;
12892;SDS011;6514;48.606;9.222;2023-04-29T10:59:11;2.30;;;0.90;;
12892;SDS011;6514;48.606;9.222;2023-04-29T11:01:44;1.03;;;0.97;;
12892;SDS011;6514;48.606;9.222;2023-04-29T11:04:12;1.30;;;0.90;;
12892;SDS011;6514;48.606;9.222;2023-04-29T11:06:41;1.23;;;0.90;;
12892;SDS011;6514;48.606;9.222;2023-04-29T11:09:19;0.90;;;0.80;;
12892;SDS011;6514;48.606;9.222;2023-04-29T11:11:48;0.83;;;0.83;;
12892;SDS011;6514;48.606;9.222;2023-04-29T11:14:23;1.63;;;0.90;;
12892;SDS011;6514;48.606;9.222;2023-04-29T11:16:53;1.10;;;1.00;;
12892;SDS011;6514;48.606;9.222;2023-04-29T11:19:23;2.13;;;1.10;;
12892;SDS011;6514;48.606;9.222;2023-04-29T11:24:48;1.30;;;1.10;;
12892;SDS011;6514;48.606;9.222;2023-04-29T11:27:16;2.30;;;1.30;;
12892;SDS011;6514;48.606;9.222;2023-04-29T11:29:44;1.37;;;1.20;;
12892;SDS011;6514;48.606;9.222;2023-04-29T11:32:12;1.57;;;1.10;;
12892;SDS011;6514;48.606;9.222;2023-04-29T11:34:39;1.27;;;1.10;;
12892;SDS011;6514;48.606;9.222;2023-04-29T11:37:07;1.13;;;1.03;;
12892;SDS011;6514;48.606;9.222;2023-04-29T11:39:34;0.90;;;0.90;;
12892;SDS011;6514;48.606;9.222;2023-04-29T11:42:04;1.83;;;1.30;;
12892;SDS011;6514;48.606;9.222;2023-04-29T11:44:34;2.53;;;1.30;;
12892;SDS011;6514;48.606;9.222;2023-04-29T11:49:30;2.70;;;1.30;;
12892;SDS011;6514;48.606;9.222;2023-04-29T11:51:57;1.43;;;1.33;;
12892;SDS011;6514;48.606;9.222;2023-04-29T11:54:24;2.37;;;1.60;;
12892;SDS011;6514;48.606;9.222;2023-04-29T11:56:52;1.60;;;1.50;;
12892;SDS011;6514;48.606;9.222;2023-04-29T11:59:19;4.17;;;1.80;;
12892;SDS011;6514;48.606;9.222;2023-04-29T12:01:46;3.10;;;1.40;;
12892;SDS011;6514;48.606;9.222;2023-04-29T12:04:13;1.93;;;1.10;;
12892;SDS011;6514;48.606;9.222;2023-04-29T12:06:41;1.57;;;1.33;;
12892;SDS011;6514;48.606;9.222;2023-04-29T12:09:08;1.57;;;1.20;;
12892;SDS011;6514;48.606;9.222;2023-04-29T12:11:36;1.50;;;1.20;;
12892;SDS011;6514;48.606;9.222;2023-04-29T12:14:03;2.70;;;1.10;;
12892;SDS011;6514;48.606;9.222;2023-04-29T12:16:31;1.23;;;1.13;;
12892;SDS011;6514;48.606;9.222;2023-04-29T12:18:58;1.20;;;1.10;;
12892;SDS011;6514;48.606;9.222;2023-04-29T12:21:25;1.50;;;1.03;;
12892;SDS011;6514;48.606;9.222;2023-04-29T12:23:57;1.30;;;1.10;;
12892;SDS011;6514;48.606;9.222;2023-04-29T12:26:26;1.40;;;1.20;;
12892;SDS011;6514;48.606;9.222;2023-04-29T12:28:53;2.03;;;1.40;;
12892;SDS011;6514;48.606;9.222;2023-04-29T12:31:22;1.10;;;1.00;;
12892;SDS011;6514;48.606;9.222;2023-04-29T12:33:52;1.20;;;1.10;;
12892;SDS011;6514;48.606;9.222;2023-04-29T12:36:20;12.70;;;5.23;;
12892;SDS011;6514;48.606;9.222;2023-04-29T12:38:48;2.90;;;2.07;;
12892;SDS011;6514;48.606;9.222;2023-04-29T12:41:34;4.40;;;2.00;;
12892;SDS011;6514;48.606;9.222;2023-04-29T12:44:02;2.53;;;1.57;;
12892;SDS011;6514;48.606;9.222;2023-04-29T12:46:33;1.50;;;1.30;;
12892;SDS011;6514;48.606;9.222;2023-04-29T12:49:01;1.97;;;1.40;;
12892;SDS011;6514;48.606;9.222;2023-04-29T12:51:28;2.23;;;1.17;;
12892;SDS011;6514;48.606;9.222;2023-04-29T12:53:56;2.07;;;1.30;;
12892;SDS011;6514;48.606;9.222;2023-04-29T12:56:24;2.10;;;1.20;;
12892;SDS011;6514;48.606;9.222;2023-04-29T12:58:51;1.40;;;1.10;;
12892;SDS011;6514;48.606;9.222;2023-04-29T13:01:18;1.03;;;1.00;;
12892;SDS011;6514;48.606;9.222;2023-04-29T13:03:45;1.93;;;1.70;;
12892;SDS011;6514;48.606;9.222;2023-04-29T13:06:13;2.03;;;1.80;;
12892;SDS011;6514;48.606;9.222;2023-04-29T13:08:40;3.87;;;2.50;;
12892;SDS011;6514;48.606;9.222;2023-04-29T13:11:07;2.87;;;2.40;;
12892;SDS011;6514;48.606;9.222;2023-04-29T13:13:35;2.70;;;2.50;;
12892;SDS011;6514;48.606;9.222;2023-04-29T13:16:03;3.03;;;2.73;;
12892;SDS011;6514;48.606;9.222;2023-04-29T13:18:30;2.93;;;2.70;;
12892;SDS011;6514;48.606;9.222;2023-04-29T13:20:57;3.47;;;2.80;;
12892;SDS011;6514;48.606;9.222;2023-04-29T13:23:24;3.00;;;2.80;;
12892;SDS011;6514;48.606;9.222;2023-04-29T13:25:51;3.63;;;3.10;;
12892;SDS011;6514;48.606;9.222;2023-04-29T13:28:18;4.10;;;2.63;;
12892;SDS011;6514;48.606;9.222;2023-04-29T13:30:47;3.97;;;3.57;;
12892;SDS011;6514;48.606;9.222;2023-04-29T13:33:15;2.83;;;2.60;;
12892;SDS011;6514;48.606;9.222;2023-04-29T13:35:41;2.83;;;2.63;;
12892;SDS011;6514;48.606;9.222;2023-04-29T13:38:08;3.10;;;2.80;;
12892;SDS011;6514;48.606;9.222;2023-04-29T13:40:35;3.70;;;3.20;;
12892;SDS011;6514;48.606;9.222;2023-04-29T13:43:02;3.70;;;3.40;;
12892;SDS011;6514;48.606;9.222;2023-04-29T13:45:30;4.30;;;3.30;;
12892;SDS011;6514;48.606;9.222;2023-04-29T13:47:59;3.90;;;3.50;;
12892;SDS011;6514;48.606;9.222;2023-04-29T13:50:26;4.10;;;3.60;;
12892;SDS011;6514;48.606;9.222;2023-04-29T13:52:53;3.33;;;3.03;;
12892;SDS011;6514;48.606;9.222;2023-04-29T13:55:20;3.47;;;3.03;;
12892;SDS011;6514;48.606;9.222;2023-04-29T13:57:47;4.17;;;3.20;;
12892;SDS011;6514;48.606;9.222;2023-04-29T14:00:15;3.47;;;3.17;;
12892;SDS011;6514;48.606;9.222;2023-04-29T14:02:42;3.30;;;3.00;;
12892;SDS011;6514;48.606;9.222;2023-04-29T14:05:10;3.37;;;3.07;;
12892;SDS011;6514;48.606;9.222;2023-04-29T14:07:38;3.13;;;2.83;;
12892;SDS011;6514;48.606;9.222;2023-04-29T14:10:05;3.07;;;2.73;;
12892;SDS011;6514;48.606;9.222;2023-04-29T14:12:35;3.07;;;2.77;;
12892;SDS011;6514;48.606;9.222;2023-04-29T14:15:02;3.57;;;3.23;;
12892;SDS011;6514;48.606;9.222;2023-04-29T14:17:29;4.63;;;3.70;;
12892;SDS011;6514;48.606;9.222;2023-04-29T14:19:56;3.50;;;3.20;;
12892;SDS011;6514;48.606;9.222;2023-04-29T14:22:25;4.03;;;3.73;;
12892;SDS011;6514;48.606;9.222;2023-04-29T14:24:53;4.83;;;4.10;;
12892;SDS011;6514;48.606;9.222;2023-04-29T14:27:20;4.83;;;3.87;;
12892;SDS011;6514;48.606;9.222;2023-04-29T14:29:47;4.63;;;3.77;;
12892;SDS011;6514;48.606;9.222;2023-04-29T14:32:14;4.20;;;3.53;;
12892;SDS011;6514;48.606;9.222;2023-04-29T14:34:41;5.90;;;3.50;;
12892;SDS011;6514;48.606;9.222;2023-04-29T14:37:08;4.20;;;3.67;;
12892;SDS011;6514;48.606;9.222;2023-04-29T14:39:36;3.97;;;3.40;;
12892;SDS011;6514;48.606;9.222;2023-04-29T14:42:03;5.70;;;3.57;;
12892;SDS011;6514;48.606;9.222;2023-04-29T14:44:30;5.73;;;4.63;;
12892;SDS011;6514;48.606;9.222;2023-04-29T14:46:57;4.07;;;3.77;;
12892;SDS011;6514;48.606;9.222;2023-04-29T14:49:24;4.27;;;3.90;;
12892;SDS011;6514;48.606;9.222;2023-04-29T14:51:51;4.43;;;3.97;;
12892;SDS011;6514;48.606;9.222;2023-04-29T14:54:18;5.77;;;4.70;;
12892;SDS011;6514;48.606;9.222;2023-04-29T14:56:46;4.90;;;4.37;;
12892;SDS011;6514;48.606;9.222;2023-04-29T14:59:13;5.70;;;5.20;;
12892;SDS011;6514;48.606;9.222;2023-04-29T15:01:40;6.00;;;5.10;;
12892;SDS011;6514;48.606;9.222;2023-04-29T15:04:07;5.07;;;4.30;;
12892;SDS011;6514;48.606;9.222;2023-04-29T15:06:36;4.97;;;4.47;;
12892;SDS011;6514;48.606;9.222;2023-04-29T15:09:04;6.30;;;4.23;;
12892;SDS011;6514;48.606;9.222;2023-04-29T15:11:32;7.20;;;4.90;;